West Terre Haute, Indiana
Current Conditions -  °F | °C
As of 8:53 AM on Monday 22 Dec 2014 (Local Time) from KHUF Reporting Station
Overcast Overcast  
Wind Chill: -1°   Ceiling: 2300
Heat Index:   Visibility: 10mi
Dew Point: -1°   Wind: 7mph
Humidity: 79%   Direction: 130°SE
Pressure: 29.92"   Gusts: NA
Location:  39.47°N, 87.45°W
Report Text: KHUF 221353Z 13006KT 10SM OVC023 02/M01 A2992 RMK AO2 SLP135 T00221011
Loading
Personal Weather Stations






























Interactive Weather Map New forecast layout! Learn more

10-Day Weather Forecast

Advertisements
Track Severe Weather on mobile